Data Viewer
| City | State | Eastern Time | Source | Temp | DewPt | RH | BP | 5 Min Precip | Wind Speed | Wind Dir | 5 Min Wind Max | 5 Min Wind Max Dir |
|---|---|---|---|---|---|---|---|---|---|---|---|---|
| West Grove | PA | 2026-05-03 15:10 | DEOS | 54 | 26 | 34 | 29.87 | 0.00 | 21 | NNW | 37 | |
| West Grove | PA | 2026-05-04 07:40 | DEOS | 51 | 41 | 68 | 29.91 | 0.00 | 7 | WSW | 12 | |
| West Grove | PA | 2026-05-04 06:30 | DEOS | 47 | 35 | 61 | 29.92 | 0.00 | 11 | WSW | 14 | |
| West Grove | PA | 2026-05-04 06:35 | DEOS | 47 | 35 | 61 | 29.92 | 0.00 | 9 | WSW | 13 | |
| West Grove | PA | 2026-05-04 06:40 | DEOS | 47 | 35 | 62 | 29.92 | 0.00 | 9 | WSW | 13 | |
| West Grove | PA | 2026-05-04 06:45 | DEOS | 47 | 35 | 62 | 29.92 | 0.00 | 9 | SW | 11 | |
| West Grove | PA | 2026-05-04 06:50 | DEOS | 47 | 35 | 64 | 29.92 | 0.00 | 8 | SW | 10 | |
| West Grove | PA | 2026-05-04 06:55 | DEOS | 47 | 36 | 63 | 29.92 | 0.00 | 9 | WSW | 12 | |
| West Grove | PA | 2026-05-04 07:00 | DEOS | 48 | 36 | 64 | 29.92 | 0.00 | 9 | SW | 13 | |
| West Grove | PA | 2026-05-04 07:05 | DEOS | 48 | 37 | 65 | 29.92 | 0.00 | 8 | WSW | 11 | |
| West Grove | PA | 2026-05-04 07:10 | DEOS | 49 | 37 | 65 | 29.92 | 0.00 | 7 | SW | 10 | |
| West Grove | PA | 2026-05-04 07:15 | DEOS | 49 | 38 | 65 | 29.92 | 0.00 | 8 | WSW | 11 | |
| West Grove | PA | 2026-05-04 07:20 | DEOS | 49 | 38 | 66 | 29.92 | 0.00 | 7 | SW | 10 | |
| West Grove | PA | 2026-05-04 07:25 | DEOS | 50 | 39 | 66 | 29.92 | 0.00 | 7 | SW | 9 | |
| West Grove | PA | 2026-05-04 07:30 | DEOS | 50 | 40 | 67 | 29.92 | 0.00 | 7 | SW | 10 | |
| West Grove | PA | 2026-05-04 07:35 | DEOS | 50 | 40 | 67 | 29.91 | 0.00 | 8 | SW | 11 | |
| West Grove | PA | 2026-05-04 07:45 | DEOS | 51 | 41 | 68 | 29.91 | 0.00 | 8 | WSW | 12 | |
| West Grove | PA | 2026-05-04 06:20 | DEOS | 46 | 33 | 60 | 29.93 | 0.00 | 10 | WSW | 13 | |
| West Grove | PA | 2026-05-04 08:30 | DEOS | 53 | 42 | 66 | 29.90 | 0.00 | 12 | WSW | 19 | |
| West Grove | PA | 2026-05-04 09:00 | DEOS | 54 | 42 | 63 | 29.90 | 0.00 | 13 | WSW | 16 | |
| West Grove | PA | 2026-05-04 08:55 | DEOS | 54 | 42 | 63 | 29.90 | 0.00 | 15 | WSW | 20 | |
| West Grove | PA | 2026-05-04 08:50 | DEOS | 54 | 42 | 64 | 29.90 | 0.00 | 14 | WSW | 18 | |
| West Grove | PA | 2026-05-04 08:45 | DEOS | 54 | 42 | 64 | 29.90 | 0.00 | 13 | WSW | 20 | |
| West Grove | PA | 2026-05-04 08:40 | DEOS | 53 | 42 | 64 | 29.90 | 0.00 | 15 | WSW | 20 | |
| West Grove | PA | 2026-05-04 08:35 | DEOS | 53 | 42 | 66 | 29.90 | 0.00 | 13 | WSW | 18 | |
| West Grove | PA | 2026-05-04 08:25 | DEOS | 53 | 42 | 66 | 29.90 | 0.00 | 13 | WSW | 20 | |
| West Grove | PA | 2026-05-04 07:50 | DEOS | 51 | 41 | 68 | 29.90 | 0.00 | 10 | WSW | 14 | |
| West Grove | PA | 2026-05-04 08:20 | DEOS | 53 | 42 | 67 | 29.90 | 0.00 | 11 | WSW | 16 | |
| West Grove | PA | 2026-05-04 08:15 | DEOS | 53 | 42 | 68 | 29.90 | 0.00 | 12 | SW | 18 | |
| West Grove | PA | 2026-05-04 08:10 | DEOS | 53 | 43 | 69 | 29.89 | 0.00 | 10 | SW | 13 | |
| West Grove | PA | 2026-05-04 08:05 | DEOS | 52 | 42 | 68 | 29.90 | 0.00 | 12 | SW | 19 | |
| West Grove | PA | 2026-05-04 08:00 | DEOS | 52 | 42 | 69 | 29.90 | 0.00 | 11 | WSW | 15 | |
| West Grove | PA | 2026-05-04 07:55 | DEOS | 51 | 41 | 68 | 29.90 | 0.00 | 12 | SW | 17 | |
| West Grove | PA | 2026-05-04 06:25 | DEOS | 47 | 34 | 61 | 29.93 | 0.00 | 11 | WSW | 17 | |
| West Grove | PA | 2026-05-04 06:15 | DEOS | 46 | 33 | 60 | 29.92 | 0.00 | 9 | WSW | 13 | |
| West Grove | PA | 2026-05-04 09:10 | DEOS | 55 | 42 | 61 | 29.89 | 0.00 | 9 | WSW | 15 | |
| West Grove | PA | 2026-05-04 04:05 | DEOS | 47 | 29 | 48 | 29.92 | 0.00 | 8 | W | 10 | |
| West Grove | PA | 2026-05-04 04:35 | DEOS | 46 | 30 | 53 | 29.93 | 0.00 | 9 | WSW | 11 | |
| West Grove | PA | 2026-05-04 04:30 | DEOS | 46 | 30 | 52 | 29.93 | 0.00 | 9 | WSW | 11 | |
| West Grove | PA | 2026-05-04 04:25 | DEOS | 46 | 29 | 51 | 29.93 | 0.00 | 9 | WSW | 11 | |
| West Grove | PA | 2026-05-04 04:20 | DEOS | 47 | 29 | 50 | 29.92 | 0.00 | 9 | WSW | 12 | |
| West Grove | PA | 2026-05-04 04:15 | DEOS | 47 | 29 | 49 | 29.92 | 0.00 | 9 | WSW | 11 | |
| West Grove | PA | 2026-05-04 04:10 | DEOS | 47 | 29 | 48 | 29.92 | 0.00 | 8 | WSW | 11 | |
| West Grove | PA | 2026-05-04 04:00 | DEOS | 47 | 28 | 48 | 29.93 | 0.00 | 7 | W | 10 | |
| West Grove | PA | 2026-05-04 04:45 | DEOS | 46 | 31 | 55 | 29.93 | 0.00 | 10 | WSW | 12 | |
| West Grove | PA | 2026-05-04 03:55 | DEOS | 47 | 28 | 47 | 29.93 | 0.00 | 7 | WSW | 10 | |
| West Grove | PA | 2026-05-04 03:50 | DEOS | 48 | 28 | 47 | 29.92 | 0.00 | 7 | WSW | 10 | |
| West Grove | PA | 2026-05-04 03:45 | DEOS | 48 | 28 | 47 | 29.93 | 0.00 | 7 | WSW | 10 | |
| West Grove | PA | 2026-05-04 03:40 | DEOS | 48 | 28 | 47 | 29.93 | 0.00 | 7 | WSW | 10 | |
| West Grove | PA | 2026-05-04 03:35 | DEOS | 48 | 28 | 47 | 29.93 | 0.00 | 7 | W | 11 | |
| West Grove | PA | 2026-05-04 03:30 | DEOS | 48 | 28 | 46 | 29.92 | 0.00 | 8 | W | 10 | |
| West Grove | PA | 2026-05-04 04:40 | DEOS | 46 | 31 | 54 | 29.93 | 0.00 | 9 | WSW | 12 | |
| West Grove | PA | 2026-05-04 04:50 | DEOS | 46 | 31 | 56 | 29.93 | 0.00 | 10 | WSW | 13 | |
| West Grove | PA | 2026-05-04 06:10 | DEOS | 46 | 33 | 59 | 29.93 | 0.00 | 10 | WSW | 13 | |
| West Grove | PA | 2026-05-04 05:35 | DEOS | 47 | 32 | 55 | 29.93 | 0.00 | 12 | WSW | 17 | |
| West Grove | PA | 2026-05-04 06:05 | DEOS | 46 | 33 | 59 | 29.93 | 0.00 | 9 | WSW | 13 | |
| West Grove | PA | 2026-05-04 06:00 | DEOS | 47 | 33 | 58 | 29.92 | 0.00 | 10 | WSW | 14 | |
| West Grove | PA | 2026-05-04 05:55 | DEOS | 47 | 33 | 57 | 29.92 | 0.00 | 10 | WSW | 14 | |
| West Grove | PA | 2026-05-04 05:50 | DEOS | 47 | 33 | 57 | 29.92 | 0.00 | 11 | WSW | 14 | |
| West Grove | PA | 2026-05-04 05:45 | DEOS | 47 | 32 | 56 | 29.93 | 0.00 | 11 | WSW | 14 | |
| West Grove | PA | 2026-05-04 05:40 | DEOS | 47 | 32 | 55 | 29.93 | 0.00 | 13 | WSW | 18 | |
| West Grove | PA | 2026-05-04 05:30 | DEOS | 47 | 32 | 55 | 29.93 | 0.00 | 11 | WSW | 14 | |
| West Grove | PA | 2026-05-04 04:55 | DEOS | 46 | 31 | 55 | 29.93 | 0.00 | 10 | WSW | 12 | |
| West Grove | PA | 2026-05-04 05:25 | DEOS | 47 | 31 | 54 | 29.93 | 0.00 | 11 | WSW | 15 | |
| West Grove | PA | 2026-05-04 05:20 | DEOS | 47 | 31 | 54 | 29.93 | 0.00 | 11 | WSW | 15 | |
| West Grove | PA | 2026-05-04 05:15 | DEOS | 47 | 31 | 54 | 29.93 | 0.00 | 10 | WSW | 13 | |
| West Grove | PA | 2026-05-04 05:10 | DEOS | 47 | 31 | 54 | 29.93 | 0.00 | 10 | WSW | 13 | |
| West Grove | PA | 2026-05-04 05:05 | DEOS | 47 | 31 | 55 | 29.93 | 0.00 | 11 | WSW | 14 | |
| West Grove | PA | 2026-05-04 05:00 | DEOS | 46 | 31 | 56 | 29.93 | 0.00 | 10 | WSW | 13 | |
| West Grove | PA | 2026-05-04 09:05 | DEOS | 55 | 42 | 62 | 29.89 | 0.00 | 10 | WSW | 17 | |
| West Grove | PA | 2026-05-04 09:15 | DEOS | 56 | 42 | 60 | 29.90 | 0.00 | 10 | WSW | 14 | |
| West Grove | PA | 2026-05-04 03:20 | DEOS | 48 | 28 | 46 | 29.93 | 0.00 | 7 | W | 11 | |
| West Grove | PA | 2026-05-04 13:00 | DEOS | 65 | 39 | 39 | 29.86 | 0.00 | 13 | WSW | 20 | |
| West Grove | PA | 2026-05-04 13:30 | DEOS | 65 | 40 | 39 | 29.85 | 0.00 | 12 | SW | 19 | |
| West Grove | PA | 2026-05-04 13:25 | DEOS | 65 | 40 | 39 | 29.86 | 0.00 | 10 | SW | 19 | |
| West Grove | PA | 2026-05-04 13:20 | DEOS | 65 | 39 | 38 | 29.85 | 0.00 | 13 | SW | 18 | |
| West Grove | PA | 2026-05-04 13:15 | DEOS | 66 | 41 | 40 | 29.85 | 0.00 | 10 | WSW | 16 | |
| West Grove | PA | 2026-05-04 13:10 | DEOS | 65 | 39 | 38 | 29.86 | 0.00 | 12 | WSW | 19 | |
| West Grove | PA | 2026-05-04 13:05 | DEOS | 65 | 40 | 39 | 29.86 | 0.00 | 9 | W | 13 | |
| West Grove | PA | 2026-05-04 12:55 | DEOS | 65 | 39 | 39 | 29.86 | 0.00 | 10 | SW | 14 | |
| West Grove | PA | 2026-05-04 13:40 | DEOS | 66 | 40 | 39 | 29.85 | 0.00 | 15 | SW | 23 | |
| West Grove | PA | 2026-05-04 12:50 | DEOS | 65 | 40 | 39 | 29.86 | 0.00 | 10 | W | 19 | |
| West Grove | PA | 2026-05-04 12:45 | DEOS | 65 | 40 | 40 | 29.86 | 0.00 | 7 | WSW | 13 | |
| West Grove | PA | 2026-05-04 12:40 | DEOS | 65 | 40 | 40 | 29.86 | 0.00 | 9 | WSW | 20 | |
| West Grove | PA | 2026-05-04 12:35 | DEOS | 64 | 38 | 39 | 29.87 | 0.00 | 10 | WSW | 15 | |
| West Grove | PA | 2026-05-04 12:30 | DEOS | 65 | 38 | 38 | 29.87 | 0.00 | 13 | WSW | 21 | |
| West Grove | PA | 2026-05-04 12:25 | DEOS | 65 | 40 | 40 | 29.87 | 0.00 | 8 | W | 14 | |
| West Grove | PA | 2026-05-04 13:35 | DEOS | 66 | 40 | 39 | 29.85 | 0.00 | 12 | WSW | 18 | |
| West Grove | PA | 2026-05-04 13:45 | DEOS | 66 | 40 | 40 | 29.85 | 0.00 | 8 | SW | 15 | |
| West Grove | PA | 2026-05-04 12:15 | DEOS | 64 | 38 | 38 | 29.87 | 0.00 | 11 | WNW | 17 | |
| West Grove | PA | 2026-05-04 14:30 | DEOS | 67 | 41 | 39 | 29.83 | 0.00 | 14 | SW | 18 | |
| West Grove | PA | 2026-05-04 15:00 | DEOS | 67 | 41 | 38 | 29.82 | 0.00 | 16 | SW | 21 | |
| West Grove | PA | 2026-05-04 14:55 | DEOS | 67 | 41 | 38 | 29.82 | 0.00 | 12 | WSW | 17 | |
| West Grove | PA | 2026-05-04 14:50 | DEOS | 67 | 41 | 38 | 29.82 | 0.00 | 12 | SSW | 19 | |
| West Grove | PA | 2026-05-04 14:45 | DEOS | 67 | 41 | 38 | 29.82 | 0.00 | 13 | SSW | 19 | |
| West Grove | PA | 2026-05-04 14:40 | DEOS | 67 | 42 | 40 | 29.83 | 0.00 | 12 | SW | 16 | |
| West Grove | PA | 2026-05-04 14:35 | DEOS | 67 | 41 | 39 | 29.82 | 0.00 | 12 | SW | 16 | |
| West Grove | PA | 2026-05-04 14:25 | DEOS | 67 | 41 | 39 | 29.83 | 0.00 | 15 | SW | 22 | |
| West Grove | PA | 2026-05-04 13:50 | DEOS | 67 | 42 | 40 | 29.85 | 0.00 | 6 | WSW | 11 | |
| West Grove | PA | 2026-05-04 14:20 | DEOS | 67 | 42 | 40 | 29.83 | 0.00 | 8 | WSW | 15 | |
| West Grove | PA | 2026-05-04 14:15 | DEOS | 67 | 41 | 39 | 29.83 | 0.00 | 11 | SW | 15 | |
| West Grove | PA | 2026-05-04 14:10 | DEOS | 66 | 40 | 39 | 29.84 | 0.00 | 10 | SSW | 15 | |
| West Grove | PA | 2026-05-04 14:05 | DEOS | 66 | 40 | 38 | 29.84 | 0.00 | 14 | SW | 19 | |
| West Grove | PA | 2026-05-04 14:00 | DEOS | 66 | 41 | 40 | 29.84 | 0.00 | 11 | SSW | 17 | |
| West Grove | PA | 2026-05-04 13:55 | DEOS | 66 | 41 | 39 | 29.84 | 0.00 | 9 | SSW | 13 | |
| West Grove | PA | 2026-05-04 12:20 | DEOS | 64 | 39 | 40 | 29.88 | 0.00 | 7 | WSW | 14 | |
| West Grove | PA | 2026-05-04 12:10 | DEOS | 64 | 37 | 37 | 29.88 | 0.00 | 11 | W | 16 | |
| West Grove | PA | 2026-05-04 09:20 | DEOS | 56 | 41 | 57 | 29.90 | 0.00 | 11 | WSW | 15 | |
| West Grove | PA | 2026-05-04 10:00 | DEOS | 58 | 41 | 52 | 29.89 | 0.00 | 9 | W | 13 | |
| West Grove | PA | 2026-05-04 10:30 | DEOS | 60 | 40 | 49 | 29.89 | 0.00 | 10 | SW | 13 | |
| West Grove | PA | 2026-05-04 10:25 | DEOS | 60 | 41 | 50 | 29.89 | 0.00 | 11 | SW | 15 | |
| West Grove | PA | 2026-05-04 10:20 | DEOS | 59 | 41 | 50 | 29.88 | 0.00 | 11 | SW | 15 | |
| West Grove | PA | 2026-05-04 10:15 | DEOS | 59 | 40 | 49 | 29.88 | 0.00 | 13 | WSW | 17 | |
| West Grove | PA | 2026-05-04 10:10 | DEOS | 59 | 40 | 50 | 29.88 | 0.00 | 13 | SW | 17 | |
| West Grove | PA | 2026-05-04 10:05 | DEOS | 58 | 41 | 52 | 29.89 | 0.00 | 11 | WSW | 16 | |
| West Grove | PA | 2026-05-04 09:55 | DEOS | 58 | 40 | 51 | 29.88 | 0.00 | 11 | WSW | 16 | |
| West Grove | PA | 2026-05-04 10:40 | DEOS | 60 | 41 | 49 | 29.88 | 0.00 | 9 | SW | 14 | |
| West Grove | PA | 2026-05-04 09:50 | DEOS | 58 | 40 | 52 | 29.89 | 0.00 | 11 | WSW | 15 | |
| West Grove | PA | 2026-05-04 09:45 | DEOS | 57 | 40 | 51 | 29.89 | 0.00 | 12 | WSW | 16 | |
| West Grove | PA | 2026-05-04 09:40 | DEOS | 58 | 41 | 54 | 29.89 | 0.00 | 10 | WSW | 16 | |
| West Grove | PA | 2026-05-04 09:35 | DEOS | 57 | 42 | 56 | 29.89 | 0.00 | 10 | WSW | 14 | |
| West Grove | PA | 2026-05-04 09:30 | DEOS | 57 | 41 | 56 | 29.90 | 0.00 | 10 | WSW | 14 | |
| West Grove | PA | 2026-05-04 09:25 | DEOS | 56 | 41 | 57 | 29.90 | 0.00 | 12 | WSW | 15 | |
| West Grove | PA | 2026-05-04 10:35 | DEOS | 60 | 40 | 48 | 29.88 | 0.00 | 12 | SW | 16 | |
| West Grove | PA | 2026-05-04 10:45 | DEOS | 61 | 39 | 45 | 29.89 | 0.00 | 12 | WSW | 18 | |
| West Grove | PA | 2026-05-04 12:05 | DEOS | 64 | 38 | 38 | 29.88 | 0.00 | 11 | WNW | 15 | |
| West Grove | PA | 2026-05-04 11:30 | DEOS | 63 | 38 | 39 | 29.89 | 0.00 | 10 | W | 17 | |
| West Grove | PA | 2026-05-04 12:00 | DEOS | 64 | 38 | 38 | 29.88 | 0.00 | 11 | W | 21 | |
| West Grove | PA | 2026-05-04 11:55 | DEOS | 64 | 37 | 37 | 29.88 | 0.00 | 8 | WNW | 13 | |
| West Grove | PA | 2026-05-04 11:50 | DEOS | 64 | 38 | 39 | 29.88 | 0.00 | 9 | W | 15 | |
| West Grove | PA | 2026-05-04 11:45 | DEOS | 63 | 37 | 38 | 29.88 | 0.00 | 12 | WNW | 19 | |
| West Grove | PA | 2026-05-04 11:40 | DEOS | 63 | 38 | 39 | 29.89 | 0.00 | 10 | W | 22 | |
| West Grove | PA | 2026-05-04 11:35 | DEOS | 63 | 38 | 39 | 29.89 | 0.00 | 11 | W | 16 | |
| West Grove | PA | 2026-05-04 11:25 | DEOS | 63 | 38 | 39 | 29.89 | 0.00 | 11 | WSW | 16 | |
| West Grove | PA | 2026-05-04 10:50 | DEOS | 61 | 39 | 44 | 29.89 | 0.00 | 10 | WSW | 16 | |
| West Grove | PA | 2026-05-04 11:20 | DEOS | 63 | 39 | 42 | 29.89 | 0.00 | 9 | WSW | 17 | |
| West Grove | PA | 2026-05-04 11:15 | DEOS | 62 | 38 | 41 | 29.89 | 0.00 | 12 | WSW | 15 | |
| West Grove | PA | 2026-05-04 11:10 | DEOS | 62 | 38 | 40 | 29.89 | 0.00 | 11 | WSW | 18 | |
| West Grove | PA | 2026-05-04 11:05 | DEOS | 62 | 39 | 42 | 29.89 | 0.00 | 11 | WSW | 17 | |
| West Grove | PA | 2026-05-04 11:00 | DEOS | 62 | 41 | 46 | 29.89 | 0.00 | 9 | SW | 13 | |
| West Grove | PA | 2026-05-04 10:55 | DEOS | 61 | 40 | 46 | 29.88 | 0.00 | 9 | WSW | 14 | |
| West Grove | PA | 2026-05-04 03:25 | DEOS | 48 | 28 | 46 | 29.93 | 0.00 | 8 | W | 11 | |
| West Grove | PA | 2026-05-04 03:15 | DEOS | 48 | 28 | 45 | 29.92 | 0.00 | 8 | W | 11 | |
| West Grove | PA | 2026-05-03 15:15 | DEOS | 54 | 27 | 35 | 29.86 | 0.00 | 19 | N | 30 | |
| West Grove | PA | 2026-05-03 18:55 | DEOS | 57 | 28 | 32 | 29.85 | 0.00 | 15 | NW | 23 | |
| West Grove | PA | 2026-05-03 19:25 | DEOS | 57 | 27 | 32 | 29.86 | 0.00 | 11 | NW | 14 | |
| West Grove | PA | 2026-05-03 19:20 | DEOS | 57 | 28 | 33 | 29.86 | 0.00 | 11 | NW | 16 | |
| West Grove | PA | 2026-05-03 19:15 | DEOS | 57 | 27 | 32 | 29.86 | 0.00 | 15 | NW | 21 | |
| West Grove | PA | 2026-05-03 19:10 | DEOS | 57 | 28 | 32 | 29.86 | 0.00 | 13 | NW | 19 | |
| West Grove | PA | 2026-05-03 19:05 | DEOS | 57 | 27 | 32 | 29.85 | 0.00 | 14 | NNW | 22 | |
| West Grove | PA | 2026-05-03 19:00 | DEOS | 57 | 27 | 32 | 29.85 | 0.00 | 15 | NNW | 20 | |
| West Grove | PA | 2026-05-03 18:50 | DEOS | 57 | 28 | 32 | 29.85 | 0.00 | 14 | NNW | 20 | |
| West Grove | PA | 2026-05-03 19:35 | DEOS | 56 | 28 | 34 | 29.86 | 0.00 | 9 | NW | 12 | |
| West Grove | PA | 2026-05-03 18:45 | DEOS | 57 | 27 | 31 | 29.85 | 0.00 | 15 | NW | 21 | |
| West Grove | PA | 2026-05-03 18:40 | DEOS | 57 | 27 | 31 | 29.85 | 0.00 | 15 | NW | 20 | |
| West Grove | PA | 2026-05-03 18:35 | DEOS | 58 | 28 | 31 | 29.85 | 0.00 | 14 | NW | 19 | |
| West Grove | PA | 2026-05-03 18:30 | DEOS | 58 | 28 | 32 | 29.85 | 0.00 | 14 | NW | 21 | |
| West Grove | PA | 2026-05-03 18:25 | DEOS | 57 | 28 | 32 | 29.85 | 0.00 | 13 | NW | 17 | |
| West Grove | PA | 2026-05-03 18:20 | DEOS | 58 | 28 | 32 | 29.85 | 0.00 | 11 | NNW | 18 | |
| West Grove | PA | 2026-05-03 19:30 | DEOS | 56 | 28 | 33 | 29.86 | 0.00 | 8 | NW | 11 | |
| West Grove | PA | 2026-05-03 19:40 | DEOS | 56 | 28 | 34 | 29.86 | 0.00 | 9 | NW | 13 | |
| West Grove | PA | 2026-05-03 18:10 | DEOS | 57 | 28 | 32 | 29.85 | 0.00 | 12 | NNW | 18 | |
| West Grove | PA | 2026-05-03 20:25 | DEOS | 53 | 28 | 38 | 29.88 | 0.00 | 6 | WNW | 8 | |
| West Grove | PA | 2026-05-03 20:55 | DEOS | 53 | 28 | 38 | 29.89 | 0.00 | 6 | W | 7 | |
| West Grove | PA | 2026-05-03 20:50 | DEOS | 53 | 28 | 38 | 29.89 | 0.00 | 6 | W | 8 | |
| West Grove | PA | 2026-05-03 20:45 | DEOS | 53 | 28 | 38 | 29.89 | 0.00 | 6 | WNW | 8 | |
| West Grove | PA | 2026-05-03 20:40 | DEOS | 53 | 29 | 38 | 29.88 | 0.00 | 6 | WNW | 8 | |
| West Grove | PA | 2026-05-03 20:35 | DEOS | 53 | 28 | 38 | 29.88 | 0.00 | 7 | WNW | 9 | |
| West Grove | PA | 2026-05-03 20:30 | DEOS | 53 | 28 | 38 | 29.88 | 0.00 | 7 | WNW | 9 | |
| West Grove | PA | 2026-05-03 20:20 | DEOS | 54 | 28 | 37 | 29.87 | 0.00 | 5 | WNW | 7 | |
| West Grove | PA | 2026-05-03 19:45 | DEOS | 56 | 28 | 35 | 29.86 | 0.00 | 7 | NW | 9 | |
| West Grove | PA | 2026-05-03 20:15 | DEOS | 54 | 28 | 37 | 29.87 | 0.00 | 6 | WNW | 8 | |
| West Grove | PA | 2026-05-03 20:10 | DEOS | 54 | 28 | 36 | 29.87 | 0.00 | 6 | WNW | 9 | |
| West Grove | PA | 2026-05-03 20:05 | DEOS | 55 | 28 | 36 | 29.87 | 0.00 | 5 | WNW | 7 | |
| West Grove | PA | 2026-05-03 20:00 | DEOS | 55 | 28 | 36 | 29.86 | 0.00 | 6 | WNW | 8 | |
| West Grove | PA | 2026-05-03 19:55 | DEOS | 55 | 28 | 36 | 29.86 | 0.00 | 6 | WNW | 9 | |
| West Grove | PA | 2026-05-03 19:50 | DEOS | 55 | 28 | 35 | 29.86 | 0.00 | 6 | NW | 9 | |
| West Grove | PA | 2026-05-03 18:15 | DEOS | 57 | 28 | 32 | 29.85 | 0.00 | 12 | NW | 18 | |
| West Grove | PA | 2026-05-03 18:05 | DEOS | 57 | 28 | 32 | 29.85 | 0.00 | 14 | NNW | 21 | |
| West Grove | PA | 2026-05-03 21:05 | DEOS | 53 | 28 | 39 | 29.89 | 0.00 | 8 | WNW | 10 | |
| West Grove | PA | 2026-05-03 15:55 | DEOS | 56 | 27 | 34 | 29.86 | 0.00 | 19 | NNW | 33 | |
| West Grove | PA | 2026-05-03 16:25 | DEOS | 56 | 27 | 33 | 29.86 | 0.00 | 14 | NNW | 19 | |
| West Grove | PA | 2026-05-03 16:20 | DEOS | 56 | 27 | 32 | 29.85 | 0.00 | 17 | NNW | 25 | |
| West Grove | PA | 2026-05-03 16:15 | DEOS | 57 | 28 | 33 | 29.86 | 0.00 | 14 | NW | 26 | |
| West Grove | PA | 2026-05-03 16:10 | DEOS | 56 | 28 | 34 | 29.86 | 0.00 | 13 | NNW | 23 | |
| West Grove | PA | 2026-05-03 16:05 | DEOS | 56 | 27 | 33 | 29.85 | 0.00 | 18 | NNW | 31 | |
| West Grove | PA | 2026-05-03 16:00 | DEOS | 55 | 27 | 33 | 29.86 | 0.00 | 21 | NNW | 32 | |
| West Grove | PA | 2026-05-03 15:50 | DEOS | 55 | 27 | 33 | 29.86 | 0.00 | 18 | N | 26 | |
| West Grove | PA | 2026-05-03 16:35 | DEOS | 56 | 27 | 31 | 29.85 | 0.00 | 15 | NNW | 23 | |
| West Grove | PA | 2026-05-03 15:45 | DEOS | 55 | 28 | 34 | 29.86 | 0.00 | 19 | NNW | 28 | |
| West Grove | PA | 2026-05-03 15:40 | DEOS | 55 | 28 | 35 | 29.87 | 0.00 | 16 | N | 24 | |
| West Grove | PA | 2026-05-03 15:35 | DEOS | 54 | 27 | 34 | 29.86 | 0.00 | 14 | N | 24 | |
| West Grove | PA | 2026-05-03 15:30 | DEOS | 54 | 28 | 36 | 29.87 | 0.00 | 17 | N | 25 | |
| West Grove | PA | 2026-05-03 15:25 | DEOS | 54 | 27 | 35 | 29.87 | 0.00 | 19 | NNW | 27 | |
| West Grove | PA | 2026-05-03 15:20 | DEOS | 54 | 26 | 34 | 29.87 | 0.00 | 20 | NW | 28 | |
| West Grove | PA | 2026-05-03 16:30 | DEOS | 56 | 28 | 33 | 29.85 | 0.00 | 15 | NNW | 25 | |
| West Grove | PA | 2026-05-03 16:40 | DEOS | 57 | 28 | 33 | 29.85 | 0.00 | 12 | NNW | 18 | |
| West Grove | PA | 2026-05-03 18:00 | DEOS | 57 | 27 | 31 | 29.85 | 0.00 | 17 | NNW | 23 | |
| West Grove | PA | 2026-05-03 17:25 | DEOS | 56 | 27 | 31 | 29.85 | 0.00 | 16 | NNW | 23 | |
| West Grove | PA | 2026-05-03 17:55 | DEOS | 58 | 27 | 31 | 29.86 | 0.00 | 15 | NW | 21 | |
| West Grove | PA | 2026-05-03 17:50 | DEOS | 57 | 28 | 32 | 29.85 | 0.00 | 15 | NNW | 21 | |
| West Grove | PA | 2026-05-03 17:45 | DEOS | 57 | 27 | 32 | 29.85 | 0.00 | 15 | NNW | 23 | |
| West Grove | PA | 2026-05-03 17:40 | DEOS | 57 | 26 | 31 | 29.85 | 0.00 | 16 | NNW | 25 | |
| West Grove | PA | 2026-05-03 17:35 | DEOS | 57 | 27 | 31 | 29.85 | 0.00 | 20 | NNW | 27 | |
| West Grove | PA | 2026-05-03 17:30 | DEOS | 57 | 27 | 31 | 29.85 | 0.00 | 13 | NNW | 20 | |
| West Grove | PA | 2026-05-03 17:20 | DEOS | 57 | 27 | 31 | 29.85 | 0.00 | 15 | NW | 20 | |
| West Grove | PA | 2026-05-03 16:45 | DEOS | 57 | 28 | 32 | 29.85 | 0.00 | 18 | NNW | 27 | |
| West Grove | PA | 2026-05-03 17:15 | DEOS | 57 | 27 | 31 | 29.85 | 0.00 | 18 | NNW | 26 | |
| West Grove | PA | 2026-05-03 17:10 | DEOS | 57 | 27 | 31 | 29.85 | 0.00 | 17 | NNW | 25 | |
| West Grove | PA | 2026-05-03 17:05 | DEOS | 56 | 27 | 32 | 29.85 | 0.00 | 14 | NNW | 21 | |
| West Grove | PA | 2026-05-03 17:00 | DEOS | 56 | 26 | 31 | 29.85 | 0.00 | 20 | NNW | 28 | |
| West Grove | PA | 2026-05-03 16:55 | DEOS | 56 | 26 | 31 | 29.84 | 0.00 | 17 | NNW | 23 | |
| West Grove | PA | 2026-05-03 16:50 | DEOS | 56 | 26 | 30 | 29.84 | 0.00 | 21 | NNW | 30 | |
| West Grove | PA | 2026-05-03 21:00 | DEOS | 53 | 28 | 39 | 29.89 | 0.00 | 7 | WNW | 9 | |
| West Grove | PA | 2026-05-03 21:10 | DEOS | 53 | 28 | 39 | 29.90 | 0.00 | 7 | WNW | 9 | |
| West Grove | PA | 2026-05-04 03:10 | DEOS | 48 | 28 | 46 | 29.92 | 0.00 | 8 | W | 11 | |
| West Grove | PA | 2026-05-04 00:55 | DEOS | 49 | 29 | 45 | 29.93 | 0.00 | 9 | W | 12 | |
| West Grove | PA | 2026-05-04 01:25 | DEOS | 49 | 29 | 45 | 29.93 | 0.00 | 9 | W | 11 | |
| West Grove | PA | 2026-05-04 01:20 | DEOS | 49 | 29 | 45 | 29.93 | 0.00 | 8 | W | 11 | |
| West Grove | PA | 2026-05-04 01:15 | DEOS | 49 | 29 | 45 | 29.93 | 0.00 | 9 | W | 12 | |
| West Grove | PA | 2026-05-04 01:10 | DEOS | 49 | 29 | 45 | 29.92 | 0.00 | 9 | W | 12 | |
| West Grove | PA | 2026-05-04 01:05 | DEOS | 49 | 29 | 45 | 29.92 | 0.00 | 10 | W | 13 | |
| West Grove | PA | 2026-05-04 01:00 | DEOS | 49 | 29 | 45 | 29.92 | 0.00 | 9 | W | 14 | |
| West Grove | PA | 2026-05-04 00:50 | DEOS | 50 | 29 | 44 | 29.93 | 0.00 | 9 | W | 13 | |
| West Grove | PA | 2026-05-04 01:35 | DEOS | 49 | 29 | 45 | 29.93 | 0.00 | 8 | W | 10 | |
| West Grove | PA | 2026-05-04 00:45 | DEOS | 50 | 29 | 44 | 29.93 | 0.00 | 9 | W | 11 | |
| West Grove | PA | 2026-05-04 00:40 | DEOS | 50 | 29 | 44 | 29.93 | 0.00 | 8 | W | 11 | |
| West Grove | PA | 2026-05-04 00:35 | DEOS | 50 | 29 | 44 | 29.93 | 0.00 | 9 | W | 11 | |
| West Grove | PA | 2026-05-04 00:30 | DEOS | 50 | 29 | 44 | 29.92 | 0.00 | 9 | W | 13 | |
| West Grove | PA | 2026-05-04 00:25 | DEOS | 50 | 29 | 44 | 29.92 | 0.00 | 9 | W | 12 | |
| West Grove | PA | 2026-05-04 00:20 | DEOS | 50 | 29 | 44 | 29.92 | 0.00 | 8 | W | 11 | |
| West Grove | PA | 2026-05-04 01:30 | DEOS | 49 | 29 | 45 | 29.93 | 0.00 | 8 | W | 12 | |
| West Grove | PA | 2026-05-04 01:40 | DEOS | 49 | 29 | 45 | 29.92 | 0.00 | 8 | W | 11 | |
| West Grove | PA | 2026-05-04 00:10 | DEOS | 50 | 29 | 45 | 29.92 | 0.00 | 9 | WNW | 10 | |
| West Grove | PA | 2026-05-04 02:35 | DEOS | 49 | 28 | 45 | 29.92 | 0.00 | 8 | W | 11 | |
| West Grove | PA | 2026-05-04 03:05 | DEOS | 48 | 28 | 46 | 29.92 | 0.00 | 9 | W | 11 | |
| West Grove | PA | 2026-05-04 03:00 | DEOS | 48 | 29 | 46 | 29.92 | 0.00 | 9 | W | 12 | |
| West Grove | PA | 2026-05-04 02:55 | DEOS | 48 | 28 | 46 | 29.92 | 0.00 | 8 | W | 12 | |
| West Grove | PA | 2026-05-04 02:50 | DEOS | 49 | 28 | 45 | 29.92 | 0.00 | 9 | W | 12 | |
| West Grove | PA | 2026-05-04 02:45 | DEOS | 49 | 28 | 45 | 29.92 | 0.00 | 9 | W | 12 | |
| West Grove | PA | 2026-05-04 02:40 | DEOS | 49 | 28 | 45 | 29.92 | 0.00 | 8 | W | 11 | |
| West Grove | PA | 2026-05-04 02:30 | DEOS | 49 | 28 | 44 | 29.92 | 0.00 | 9 | W | 12 | |
| West Grove | PA | 2026-05-04 01:45 | DEOS | 49 | 29 | 46 | 29.92 | 0.00 | 8 | W | 10 | |
| West Grove | PA | 2026-05-04 02:25 | DEOS | 49 | 28 | 44 | 29.92 | 0.00 | 9 | W | 12 | |
| West Grove | PA | 2026-05-04 02:20 | DEOS | 49 | 28 | 45 | 29.93 | 0.00 | 10 | W | 12 | |
| West Grove | PA | 2026-05-04 02:05 | DEOS | 49 | 29 | 45 | 29.92 | 0.00 | 8 | W | 10 | |
| West Grove | PA | 2026-05-04 02:00 | DEOS | 49 | 29 | 45 | 29.92 | 0.00 | 8 | W | 10 | |
| West Grove | PA | 2026-05-04 01:55 | DEOS | 49 | 29 | 45 | 29.92 | 0.00 | 8 | W | 10 | |
| West Grove | PA | 2026-05-04 01:50 | DEOS | 49 | 29 | 45 | 29.92 | 0.00 | 9 | W | 11 | |
| West Grove | PA | 2026-05-04 00:15 | DEOS | 49 | 29 | 45 | 29.92 | 0.00 | 8 | WNW | 10 | |
| West Grove | PA | 2026-05-04 00:05 | DEOS | 50 | 29 | 44 | 29.92 | 0.00 | 8 | W | 11 | |
| West Grove | PA | 2026-05-03 21:15 | DEOS | 52 | 29 | 40 | 29.90 | 0.00 | 7 | W | 9 | |
| West Grove | PA | 2026-05-03 21:55 | DEOS | 52 | 29 | 41 | 29.91 | 0.00 | 7 | W | 9 | |
| West Grove | PA | 2026-05-03 22:25 | DEOS | 51 | 29 | 41 | 29.91 | 0.00 | 7 | W | 9 | |
| West Grove | PA | 2026-05-03 22:20 | DEOS | 51 | 29 | 41 | 29.91 | 0.00 | 8 | W | 10 | |
| West Grove | PA | 2026-05-03 22:15 | DEOS | 51 | 29 | 41 | 29.91 | 0.00 | 7 | W | 10 | |
| West Grove | PA | 2026-05-03 22:10 | DEOS | 52 | 29 | 41 | 29.91 | 0.00 | 7 | W | 9 | |
| West Grove | PA | 2026-05-03 22:05 | DEOS | 51 | 29 | 41 | 29.91 | 0.00 | 6 | W | 9 | |
| West Grove | PA | 2026-05-03 22:00 | DEOS | 52 | 29 | 41 | 29.91 | 0.00 | 6 | W | 8 | |
| West Grove | PA | 2026-05-03 21:50 | DEOS | 52 | 29 | 40 | 29.91 | 0.00 | 7 | W | 9 | |
| West Grove | PA | 2026-05-03 22:35 | DEOS | 51 | 29 | 42 | 29.91 | 0.00 | 7 | W | 9 | |
| West Grove | PA | 2026-05-03 21:45 | DEOS | 52 | 29 | 40 | 29.91 | 0.00 | 7 | W | 9 | |
| West Grove | PA | 2026-05-03 21:40 | DEOS | 52 | 29 | 41 | 29.91 | 0.00 | 6 | W | 9 | |
| West Grove | PA | 2026-05-03 21:35 | DEOS | 52 | 29 | 40 | 29.90 | 0.00 | 7 | W | 9 | |
| West Grove | PA | 2026-05-03 21:30 | DEOS | 52 | 29 | 40 | 29.90 | 0.00 | 7 | WNW | 9 | |
| West Grove | PA | 2026-05-03 21:25 | DEOS | 52 | 29 | 40 | 29.90 | 0.00 | 6 | WNW | 8 | |
| West Grove | PA | 2026-05-03 21:20 | DEOS | 52 | 29 | 40 | 29.89 | 0.00 | 7 | W | 9 | |
| West Grove | PA | 2026-05-03 22:30 | DEOS | 51 | 29 | 42 | 29.91 | 0.00 | 6 | W | 9 | |
| West Grove | PA | 2026-05-03 22:40 | DEOS | 51 | 29 | 42 | 29.91 | 0.00 | 8 | W | 9 | |
| West Grove | PA | 2026-05-04 00:00 | DEOS | 50 | 29 | 44 | 29.92 | 0.00 | 8 | W | 11 | |
| West Grove | PA | 2026-05-03 23:25 | DEOS | 51 | 29 | 43 | 29.91 | 0.00 | 8 | W | 10 | |
| West Grove | PA | 2026-05-03 23:55 | DEOS | 50 | 29 | 44 | 29.92 | 0.00 | 8 | W | 10 | |
| West Grove | PA | 2026-05-03 23:50 | DEOS | 50 | 29 | 44 | 29.92 | 0.00 | 8 | W | 10 | |
| West Grove | PA | 2026-05-03 23:45 | DEOS | 50 | 29 | 44 | 29.91 | 0.00 | 8 | W | 10 | |
| West Grove | PA | 2026-05-03 23:40 | DEOS | 50 | 29 | 43 | 29.91 | 0.00 | 8 | W | 10 | |
| West Grove | PA | 2026-05-03 23:35 | DEOS | 51 | 29 | 43 | 29.91 | 0.00 | 8 | W | 10 | |
| West Grove | PA | 2026-05-03 23:30 | DEOS | 50 | 29 | 43 | 29.91 | 0.00 | 7 | W | 10 | |
| West Grove | PA | 2026-05-03 23:20 | DEOS | 50 | 29 | 43 | 29.91 | 0.00 | 7 | W | 9 | |
| West Grove | PA | 2026-05-03 22:45 | DEOS | 51 | 29 | 42 | 29.91 | 0.00 | 7 | W | 9 | |
| West Grove | PA | 2026-05-03 23:15 | DEOS | 51 | 29 | 43 | 29.91 | 0.00 | 7 | W | 10 | |
| West Grove | PA | 2026-05-03 23:10 | DEOS | 51 | 29 | 42 | 29.91 | 0.00 | 8 | W | 10 | |
| West Grove | PA | 2026-05-03 23:05 | DEOS | 51 | 29 | 42 | 29.91 | 0.00 | 8 | W | 10 | |
| West Grove | PA | 2026-05-03 23:00 | DEOS | 51 | 29 | 42 | 29.91 | 0.00 | 7 | W | 9 | |
| West Grove | PA | 2026-05-03 22:55 | DEOS | 51 | 29 | 42 | 29.91 | 0.00 | 7 | W | 8 | |
| West Grove | PA | 2026-05-03 22:50 | DEOS | 51 | 29 | 42 | 29.91 | 0.00 | 7 | W | 9 | |
| West Grove | PA | 2026-05-04 15:05 | DEOS | 67 | 40 | 38 | 29.82 | 0.00 | 15 | SW | 20 |
data collection created in 0.054976940155029 (queried in 0.010644) rendered in: 0.00081110000610352

